Caloundra, Australia
Current Conditions -  °F | °C
As of 9:00 AM on Tuesday 23 Dec 2014 (Local Time) from YBBN Reporting Station
Scattered Clouds Scattered Clouds  
Wind Chill: 79°   Ceiling: Unl
Heat Index: 80°   Visibility: 6mi
Dew Point: 63°   Wind: 6mph
Humidity: 57%   Direction: 120°ESE
Pressure: 30"   Gusts: NA
Location:  26.8°S, 153.13°E
Report Text: YBBN 222300Z 12005KT 9999 SCT030 26/17 Q1016
Loading
Personal Weather Stations






























Interactive Weather Map New forecast layout! Learn more

10-Day Weather Forecast

Advertisements
Track Severe Weather on mobile